createdAt,value
2023-03-24T00:00:05.655Z,9.36
2023-03-24T00:02:32.605Z,9.55
2023-03-24T00:04:59.367Z,9.49
2023-03-24T00:07:26.205Z,9.48
2023-03-24T00:09:54.122Z,9.51
2023-03-24T00:12:20.818Z,9.56
2023-03-24T00:14:47.495Z,9.45
2023-03-24T00:17:14.249Z,9.39
2023-03-24T00:19:41.201Z,9.36
2023-03-24T00:22:09.212Z,9.65
2023-03-24T00:24:35.973Z,9.36
2023-03-24T00:27:02.608Z,9.30
2023-03-24T00:29:29.470Z,9.27
2023-03-24T00:31:56.167Z,9.26
2023-03-24T00:34:22.868Z,9.21
2023-03-24T00:36:50.754Z,9.24
2023-03-24T00:39:19.109Z,9.21
2023-03-24T00:41:47.349Z,9.35
2023-03-24T00:44:17.543Z,9.32
2023-03-24T00:46:48.843Z,9.34
2023-03-24T00:49:15.517Z,9.32
2023-03-24T00:51:43.176Z,9.37
2023-03-24T00:54:11.800Z,9.43
2023-03-24T00:56:39.882Z,9.33
2023-03-24T00:59:07.107Z,9.42
2023-03-24T01:01:35.181Z,9.24
2023-03-24T01:04:03.696Z,9.18
2023-03-24T01:06:30.340Z,9.09
2023-03-24T01:08:57.366Z,9.10
2023-03-24T01:11:26.174Z,9.12
2023-03-24T01:13:53.658Z,9.06
2023-03-24T01:16:20.520Z,9.31
2023-03-24T01:18:47.279Z,9.14
2023-03-24T01:21:14.157Z,8.98
2023-03-24T01:23:40.800Z,9.01
2023-03-24T01:26:10.332Z,8.93
2023-03-24T01:28:37.693Z,8.87
2023-03-24T01:31:04.452Z,8.87
2023-03-24T01:33:31.103Z,8.90
2023-03-24T01:35:58.078Z,8.98
2023-03-24T01:38:24.863Z,8.78
2023-03-24T01:40:51.846Z,8.89
2023-03-24T01:43:21.968Z,8.83
2023-03-24T01:45:51.363Z,8.77
2023-03-24T01:48:42.755Z,8.69
2023-03-24T01:51:29.653Z,8.63
2023-03-24T01:54:18.845Z,8.59
2023-03-24T01:57:04.774Z,8.55
2023-03-24T01:59:35.652Z,8.63
2023-03-24T02:02:05.139Z,8.54
2023-03-24T02:04:40.973Z,8.66
2023-03-24T02:07:25.876Z,8.76
2023-03-24T02:09:52.714Z,8.82
2023-03-24T02:12:19.579Z,8.55
2023-03-24T02:14:46.450Z,8.53
2023-03-24T02:17:34.423Z,8.47
2023-03-24T02:20:19.424Z,8.62
2023-03-24T02:23:22.906Z,8.54
2023-03-24T02:25:58.538Z,8.58
2023-03-24T02:28:39.934Z,8.54
2023-03-24T02:31:42.221Z,8.55
2023-03-24T02:34:11.599Z,8.69
2023-03-24T02:36:41.077Z,8.52
2023-03-24T02:39:18.824Z,8.56
2023-03-24T02:42:18.889Z,8.41
2023-03-24T02:45:02.903Z,8.47
2023-03-24T02:48:01.935Z,8.33
2023-03-24T02:50:41.194Z,8.33
2023-03-24T02:53:19.774Z,8.18
2023-03-24T02:55:53.518Z,8.22
2023-03-24T02:58:35.283Z,8.17
2023-03-24T03:01:29.852Z,8.20
2023-03-24T03:04:01.237Z,8.22
2023-03-24T03:06:31.876Z,8.33
2023-03-24T03:09:04.335Z,8.37
2023-03-24T03:11:31.225Z,8.47
2023-03-24T03:14:25.100Z,8.37
2023-03-24T03:17:01.295Z,8.32
2023-03-24T03:19:39.276Z,8.40
2023-03-24T03:22:13.166Z,8.27
2023-03-24T03:24:43.990Z,8.23
2023-03-24T03:27:26.249Z,8.23
2023-03-24T03:29:58.963Z,8.39
2023-03-24T03:32:33.600Z,8.37
2023-03-24T03:35:24.975Z,8.41
2023-03-24T03:38:16.269Z,8.25
2023-03-24T03:40:51.645Z,7.98
2023-03-24T03:43:19.133Z,7.97
2023-03-24T03:45:46.340Z,8.06
2023-03-24T03:48:13.922Z,7.92
2023-03-24T03:50:40.634Z,7.91
2023-03-24T03:53:08.219Z,7.84
2023-03-24T03:55:35.539Z,7.92
2023-03-24T03:58:05.430Z,7.85
2023-03-24T04:00:32.370Z,7.82
2023-03-24T04:03:28.399Z,7.73
2023-03-24T04:06:00.302Z,7.72
2023-03-24T04:08:45.367Z,7.81
2023-03-24T04:11:17.963Z,7.94
2023-03-24T04:13:56.736Z,8.16
2023-03-24T04:16:36.888Z,8.09
2023-03-24T04:19:21.682Z,7.92
2023-03-24T04:22:26.392Z,7.93
2023-03-24T04:25:16.368Z,8.26
2023-03-24T04:28:39.905Z,7.92
2023-03-24T04:31:12.519Z,7.92
2023-03-24T04:33:47.887Z,7.76
2023-03-24T04:36:36.579Z,7.89
2023-03-24T04:39:03.739Z,7.94
2023-03-24T04:41:31.629Z,7.84
2023-03-24T04:44:00.127Z,7.92
2023-03-24T04:46:26.891Z,7.86
2023-03-24T04:48:53.771Z,7.69
2023-03-24T04:51:21.168Z,7.79
2023-03-24T04:53:48.129Z,7.75
2023-03-24T04:56:31.123Z,7.71
2023-03-24T04:58:57.862Z,7.89
2023-03-24T05:01:26.415Z,7.85
2023-03-24T05:03:53.064Z,7.80
2023-03-24T05:06:19.734Z,7.63
2023-03-24T05:08:46.370Z,7.68
2023-03-24T05:11:12.956Z,8.01
2023-03-24T05:13:39.563Z,7.63
2023-03-24T05:16:06.745Z,8.04
2023-03-24T05:18:33.464Z,7.76
2023-03-24T05:21:00.122Z,7.73
2023-03-24T05:23:26.850Z,7.71
2023-03-24T05:25:53.597Z,7.96
2023-03-24T05:28:20.196Z,7.87
2023-03-24T05:30:47.319Z,7.78
2023-03-24T05:33:14.034Z,7.75
2023-03-24T05:35:40.732Z,7.67
2023-03-24T05:38:07.681Z,7.59
2023-03-24T05:40:34.290Z,7.78
2023-03-24T05:43:00.875Z,8.00
2023-03-24T05:45:27.617Z,8.13
2023-03-24T05:47:54.306Z,8.00
2023-03-24T05:50:21.193Z,7.96
2023-03-24T05:52:47.845Z,7.98
2023-03-24T05:55:14.866Z,7.96
2023-03-24T05:57:42.421Z,8.10
2023-03-24T06:00:09.670Z,8.24
2023-03-24T06:02:36.404Z,8.12
2023-03-24T06:05:03.174Z,8.10
2023-03-24T06:07:29.813Z,8.33
2023-03-24T06:09:59.425Z,8.60
2023-03-24T06:12:26.111Z,8.73
2023-03-24T06:14:52.723Z,8.75
2023-03-24T06:17:19.462Z,8.72
2023-03-24T06:19:46.066Z,8.75
2023-03-24T06:22:12.761Z,8.90
2023-03-24T06:24:39.402Z,8.91
2023-03-24T06:27:05.993Z,9.14
2023-03-24T06:29:32.737Z,9.27
2023-03-24T06:31:59.543Z,9.19
2023-03-24T06:34:26.293Z,9.31
2023-03-24T06:36:52.946Z,9.27
2023-03-24T06:39:19.591Z,9.43
2023-03-24T06:41:46.345Z,9.86
2023-03-24T06:44:13.377Z,10.15
2023-03-24T06:46:40.061Z,10.33
2023-03-24T06:49:06.712Z,10.04
2023-03-24T06:51:33.320Z,10.25
2023-03-24T06:54:00.068Z,10.25
2023-03-24T06:56:26.688Z,10.23
2023-03-24T06:58:53.388Z,10.20
2023-03-24T07:01:20.159Z,10.74
2023-03-24T07:03:46.874Z,11.13
2023-03-24T07:06:13.694Z,11.01
2023-03-24T07:08:43.308Z,10.95
2023-03-24T07:11:10.456Z,10.75
2023-03-24T07:13:37.716Z,10.78
2023-03-24T07:16:04.836Z,10.72
2023-03-24T07:18:31.659Z,11.05
2023-03-24T07:20:58.354Z,10.94
2023-03-24T07:23:25.011Z,11.03
2023-03-24T07:25:52.017Z,11.17
2023-03-24T07:28:19.007Z,11.48
2023-03-24T07:30:45.690Z,11.49
2023-03-24T07:33:12.506Z,11.52
2023-03-24T07:35:40.414Z,11.91
2023-03-24T07:38:07.638Z,12.08
2023-03-24T07:40:34.346Z,11.90
2023-03-24T07:43:02.502Z,12.01
2023-03-24T07:45:29.207Z,12.26
2023-03-24T07:47:55.991Z,12.17
2023-03-24T07:50:22.854Z,12.31
2023-03-24T07:52:50.626Z,12.42
2023-03-24T07:55:17.516Z,12.68
2023-03-24T07:57:47.693Z,12.54
2023-03-24T08:00:14.987Z,12.56
2023-03-24T08:02:42.692Z,12.77
2023-03-24T08:05:10.228Z,13.02
2023-03-24T08:07:37.065Z,13.16
2023-03-24T08:10:04.084Z,13.12
2023-03-24T08:12:30.784Z,13.17
2023-03-24T08:14:57.654Z,13.22
2023-03-24T08:17:25.518Z,13.01
2023-03-24T08:20:00.236Z,13.54
2023-03-24T08:22:28.266Z,13.78
2023-03-24T08:24:54.907Z,13.72
2023-03-24T08:27:21.617Z,14.26
2023-03-24T08:29:48.353Z,14.41
2023-03-24T08:32:15.084Z,14.43
2023-03-24T08:34:41.688Z,14.49
2023-03-24T08:37:08.434Z,14.25
2023-03-24T08:39:35.023Z,14.79
2023-03-24T08:42:02.264Z,14.99
2023-03-24T08:44:30.231Z,14.71
2023-03-24T08:47:00.765Z,14.68
2023-03-24T08:49:27.673Z,15.24
2023-03-24T08:51:54.355Z,15.21
2023-03-24T08:54:21.064Z,15.32
2023-03-24T08:56:47.687Z,15.06
2023-03-24T08:59:14.541Z,15.35
2023-03-24T09:01:41.284Z,15.42
2023-03-24T09:04:07.960Z,15.26
2023-03-24T09:06:34.688Z,15.29
2023-03-24T09:09:01.540Z,15.32
2023-03-24T09:11:28.286Z,15.48
2023-03-24T09:13:54.932Z,15.60
2023-03-24T09:16:21.738Z,15.64
2023-03-24T09:18:48.411Z,15.70
2023-03-24T09:21:15.179Z,16.14
2023-03-24T09:23:41.911Z,15.82
2023-03-24T09:26:08.519Z,15.75
2023-03-24T09:28:35.363Z,15.55
2023-03-24T09:31:05.649Z,15.79
2023-03-24T09:33:33.108Z,16.37
2023-03-24T09:36:01.643Z,16.37
2023-03-24T09:38:28.892Z,15.99
2023-03-24T09:40:58.710Z,16.45
2023-03-24T09:43:44.000Z,16.64
2023-03-24T09:46:29.265Z,16.54
2023-03-24T09:48:56.806Z,16.79
2023-03-24T09:51:35.217Z,16.92
2023-03-24T09:54:01.813Z,16.64
2023-03-24T09:56:29.932Z,16.93
2023-03-24T09:59:07.280Z,17.16
2023-03-24T10:01:35.344Z,17.34
2023-03-24T10:04:02.484Z,17.52
2023-03-24T10:06:37.214Z,17.76
2023-03-24T10:09:22.490Z,17.72
2023-03-24T10:12:05.733Z,17.97
2023-03-24T10:15:12.336Z,17.89
2023-03-24T10:18:00.866Z,18.00
2023-03-24T10:20:38.176Z,18.05
2023-03-24T10:23:23.297Z,18.21
2023-03-24T10:26:31.215Z,18.59
2023-03-24T10:29:30.254Z,18.75
2023-03-24T10:32:05.660Z,18.57
2023-03-24T10:34:34.405Z,18.51
2023-03-24T10:37:03.912Z,18.33
2023-03-24T10:39:41.975Z,18.51
2023-03-24T10:42:24.036Z,18.57
2023-03-24T10:44:52.122Z,18.56
2023-03-24T10:47:25.017Z,18.42
2023-03-24T10:49:55.966Z,18.36
2023-03-24T10:52:22.599Z,18.12
2023-03-24T10:54:57.551Z,18.05
2023-03-24T10:57:26.020Z,18.45
2023-03-24T11:00:05.775Z,18.97
2023-03-24T11:02:33.763Z,19.24
2023-03-24T11:05:20.997Z,19.35
2023-03-24T11:07:50.203Z,18.92
2023-03-24T11:10:24.121Z,19.10
2023-03-24T11:12:53.833Z,18.90
2023-03-24T11:15:34.852Z,18.55
2023-03-24T11:18:08.183Z,18.79
2023-03-24T11:20:38.248Z,18.62
2023-03-24T11:23:25.949Z,18.78
2023-03-24T11:26:14.500Z,19.09
2023-03-24T11:28:46.288Z,19.39
2023-03-24T11:31:25.151Z,19.06
2023-03-24T11:33:58.829Z,19.39
2023-03-24T11:36:31.278Z,19.47
2023-03-24T11:39:10.929Z,19.42
2023-03-24T11:42:16.417Z,19.85
2023-03-24T11:44:53.340Z,19.88
2023-03-24T11:47:27.939Z,19.82
2023-03-24T11:49:57.295Z,20.29
2023-03-24T11:52:32.516Z,20.21
2023-03-24T11:54:59.225Z,20.20
2023-03-24T11:57:44.819Z,20.36
2023-03-24T12:00:21.561Z,20.37
2023-03-24T12:02:48.450Z,20.52
2023-03-24T12:05:30.889Z,20.55
2023-03-24T12:08:47.690Z,20.23
2023-03-24T12:11:33.525Z,20.38
2023-03-24T12:14:04.129Z,20.50
2023-03-24T12:16:41.905Z,20.19
2023-03-24T12:19:44.193Z,20.54
2023-03-24T12:22:10.776Z,20.43
2023-03-24T12:25:21.765Z,20.42
2023-03-24T12:27:51.365Z,20.80
2023-03-24T12:30:55.440Z,20.91
2023-03-24T12:33:30.760Z,21.20
2023-03-24T12:36:31.168Z,20.89
2023-03-24T12:39:24.340Z,21.05
2023-03-24T12:42:00.056Z,20.70
2023-03-24T12:45:04.477Z,20.75
2023-03-24T12:47:37.140Z,20.93
2023-03-24T12:50:35.652Z,21.05
2023-03-24T12:53:33.104Z,21.03
2023-03-24T12:56:09.308Z,20.83
2023-03-24T12:59:04.607Z,20.56
2023-03-24T13:01:42.050Z,20.39
2023-03-24T13:04:21.787Z,20.27
2023-03-24T13:06:59.333Z,20.40
2023-03-24T13:09:52.408Z,20.44
2023-03-24T13:12:43.323Z,20.45
2023-03-24T13:15:12.791Z,20.40
2023-03-24T13:17:47.631Z,20.41
2023-03-24T13:20:33.458Z,20.40
2023-03-24T13:23:22.383Z,20.18
2023-03-24T13:26:18.100Z,20.37
2023-03-24T13:29:01.944Z,20.25
2023-03-24T13:31:43.589Z,20.41
2023-03-24T13:34:22.768Z,20.57
2023-03-24T13:36:54.816Z,20.70
2023-03-24T13:39:23.997Z,20.99
2023-03-24T13:41:53.769Z,21.06
2023-03-24T13:44:42.146Z,21.15
2023-03-24T13:47:13.596Z,20.98
2023-03-24T13:49:59.211Z,21.13
2023-03-24T13:52:35.541Z,21.16
2023-03-24T13:55:10.505Z,21.00
2023-03-24T13:57:42.755Z,20.84
2023-03-24T14:00:26.643Z,20.12
2023-03-24T14:03:16.297Z,20.48
2023-03-24T14:06:09.855Z,20.93
2023-03-24T14:08:51.706Z,21.18
2023-03-24T14:11:33.729Z,21.39
2023-03-24T14:14:15.598Z,21.40
2023-03-24T14:17:04.495Z,21.34
2023-03-24T14:19:57.516Z,21.22
2023-03-24T14:22:33.542Z,21.70
2023-03-24T14:25:03.690Z,21.53
2023-03-24T14:27:48.586Z,21.77
2023-03-24T14:30:27.561Z,21.49
2023-03-24T14:32:59.342Z,21.13
2023-03-24T14:35:36.291Z,21.56
2023-03-24T14:38:22.324Z,20.88
2023-03-24T14:40:55.263Z,20.91
2023-03-24T14:43:27.698Z,21.31
2023-03-24T14:46:35.891Z,21.43
2023-03-24T14:49:11.629Z,20.89
2023-03-24T14:51:43.798Z,20.58
2023-03-24T14:54:15.835Z,20.49
2023-03-24T14:56:46.719Z,20.22
2023-03-24T14:59:28.649Z,20.10
2023-03-24T15:02:04.021Z,20.55
2023-03-24T15:04:30.760Z,20.58
2023-03-24T15:06:57.368Z,20.40
2023-03-24T15:09:25.860Z,20.37
2023-03-24T15:11:59.477Z,20.18
2023-03-24T15:14:26.598Z,20.04
2023-03-24T15:16:57.114Z,20.16
2023-03-24T15:19:32.824Z,20.12
2023-03-24T15:22:02.941Z,20.22
2023-03-24T15:24:33.515Z,20.20
2023-03-24T15:27:06.123Z,20.35
2023-03-24T15:29:57.402Z,19.92
2023-03-24T15:32:26.286Z,20.45
2023-03-24T15:34:58.789Z,20.33
2023-03-24T15:37:32.775Z,19.73
2023-03-24T15:40:12.945Z,19.91
2023-03-24T15:42:44.960Z,19.87
2023-03-24T15:45:21.749Z,19.68
2023-03-24T15:47:52.050Z,19.76
2023-03-24T15:50:40.544Z,20.03
2023-03-24T15:53:25.926Z,19.83
2023-03-24T15:56:13.186Z,19.55
2023-03-24T15:59:08.480Z,19.58
2023-03-24T16:01:36.672Z,19.92
2023-03-24T16:04:11.942Z,19.94
2023-03-24T16:06:43.730Z,19.38
2023-03-24T16:09:15.704Z,19.15
2023-03-24T16:11:43.025Z,19.61
2023-03-24T16:14:27.076Z,19.09
2023-03-24T16:16:59.524Z,19.05
2023-03-24T16:19:27.100Z,19.37
2023-03-24T16:21:53.768Z,18.79
2023-03-24T16:24:20.956Z,18.90
2023-03-24T16:26:47.748Z,18.70
2023-03-24T16:29:14.356Z,18.55
2023-03-24T16:31:40.986Z,18.83
2023-03-24T16:34:07.818Z,18.51
2023-03-24T16:36:34.558Z,18.74
2023-03-24T16:39:02.373Z,18.45
2023-03-24T16:41:29.229Z,19.00
2023-03-24T16:43:55.846Z,18.51
2023-03-24T16:46:32.076Z,18.56
2023-03-24T16:48:59.460Z,18.84
2023-03-24T16:51:26.220Z,19.03
2023-03-24T16:53:53.000Z,18.53
2023-03-24T16:56:21.639Z,18.94
2023-03-24T16:58:49.567Z,19.22
2023-03-24T17:01:25.913Z,19.02
2023-03-24T17:04:07.011Z,18.94
2023-03-24T17:06:33.763Z,18.90
2023-03-24T17:09:00.421Z,18.77
2023-03-24T17:11:33.111Z,19.09
2023-03-24T17:13:59.763Z,18.80
2023-03-24T17:16:26.532Z,18.51
2023-03-24T17:18:53.166Z,18.39
2023-03-24T17:21:20.082Z,18.40
2023-03-24T17:23:47.691Z,18.02
2023-03-24T17:26:14.480Z,17.78
2023-03-24T17:28:41.113Z,17.84
2023-03-24T17:31:08.083Z,17.89
2023-03-24T17:33:34.852Z,17.95
2023-03-24T17:36:01.775Z,17.86
2023-03-24T17:38:28.566Z,17.97
2023-03-24T17:41:02.344Z,17.70
2023-03-24T17:43:29.023Z,18.00
2023-03-24T17:45:59.745Z,17.55
2023-03-24T17:48:27.179Z,17.64
2023-03-24T17:50:55.492Z,17.56
2023-03-24T17:53:22.230Z,17.66
2023-03-24T17:55:50.794Z,17.68
2023-03-24T17:58:17.419Z,17.62
2023-03-24T18:00:44.201Z,17.58
2023-03-24T18:03:11.012Z,17.49
2023-03-24T18:05:37.870Z,17.47
2023-03-24T18:08:04.766Z,17.30
2023-03-24T18:10:32.369Z,17.15
2023-03-24T18:12:59.013Z,17.09
2023-03-24T18:15:25.987Z,17.01
2023-03-24T18:17:53.262Z,16.69
2023-03-24T18:20:20.489Z,16.77
2023-03-24T18:22:47.158Z,16.70
2023-03-24T18:25:14.085Z,16.60
2023-03-24T18:27:41.546Z,16.28
2023-03-24T18:30:10.659Z,16.30
2023-03-24T18:32:38.326Z,16.46
2023-03-24T18:35:09.680Z,16.34
2023-03-24T18:37:36.643Z,16.35
2023-03-24T18:40:04.663Z,16.17
2023-03-24T18:42:31.352Z,16.40
2023-03-24T18:44:57.989Z,16.24
2023-03-24T18:47:24.641Z,16.32
2023-03-24T18:49:51.295Z,15.95
2023-03-24T18:52:17.948Z,15.41
2023-03-24T18:54:45.608Z,15.46
2023-03-24T18:57:12.551Z,15.30
2023-03-24T18:59:39.283Z,15.12
2023-03-24T19:02:06.071Z,15.28
2023-03-24T19:04:32.707Z,15.00
2023-03-24T19:06:59.426Z,15.14
2023-03-24T19:09:26.386Z,15.27
2023-03-24T19:11:53.051Z,15.22
2023-03-24T19:14:19.703Z,15.09
2023-03-24T19:16:46.513Z,15.36
2023-03-24T19:19:13.164Z,15.29
2023-03-24T19:21:39.822Z,15.31
2023-03-24T19:24:06.783Z,15.20
2023-03-24T19:26:33.391Z,15.27
2023-03-24T19:29:00.029Z,15.31
2023-03-24T19:31:26.861Z,15.00
2023-03-24T19:33:53.569Z,14.98
2023-03-24T19:36:20.393Z,15.33
2023-03-24T19:38:47.147Z,15.40
2023-03-24T19:41:14.513Z,15.38
2023-03-24T19:43:41.254Z,15.48
2023-03-24T19:46:09.394Z,15.46
2023-03-24T19:48:36.374Z,15.43
2023-03-24T19:51:03.730Z,15.26
2023-03-24T19:53:30.753Z,15.25
2023-03-24T19:55:58.803Z,15.29
2023-03-24T19:58:25.908Z,15.32
2023-03-24T20:00:52.592Z,15.34
2023-03-24T20:03:19.437Z,15.32
2023-03-24T20:05:46.319Z,15.26
2023-03-24T20:08:13.140Z,15.50
2023-03-24T20:10:39.902Z,15.43
2023-03-24T20:13:07.938Z,15.19
2023-03-24T20:15:35.738Z,14.90
2023-03-24T20:18:02.693Z,14.98
2023-03-24T20:20:29.407Z,14.88
2023-03-24T20:22:56.255Z,14.61
2023-03-24T20:25:22.903Z,14.54
2023-03-24T20:27:49.684Z,14.62
2023-03-24T20:30:18.455Z,14.95
2023-03-24T20:32:45.189Z,15.11
2023-03-24T20:35:12.166Z,15.46
2023-03-24T20:37:38.916Z,15.95
2023-03-24T20:40:07.386Z,15.54
2023-03-24T20:42:34.007Z,15.51
2023-03-24T20:45:00.704Z,15.86
2023-03-24T20:47:27.510Z,15.14
2023-03-24T20:49:54.235Z,14.82
2023-03-24T20:52:20.877Z,15.20
2023-03-24T20:54:47.529Z,14.60
2023-03-24T20:57:14.197Z,15.16
2023-03-24T20:59:40.948Z,14.64
2023-03-24T21:02:07.612Z,14.23
2023-03-24T21:04:34.316Z,14.45
2023-03-24T21:07:01.082Z,14.44
2023-03-24T21:09:27.746Z,14.28
2023-03-24T21:11:54.741Z,14.60
2023-03-24T21:14:21.421Z,14.12
2023-03-24T21:16:48.677Z,14.19
2023-03-24T21:19:15.545Z,14.12
2023-03-24T21:21:42.243Z,13.92
2023-03-24T21:24:08.891Z,13.99
2023-03-24T21:26:35.747Z,13.98
2023-03-24T21:29:02.404Z,14.15
2023-03-24T21:31:29.707Z,14.05
2023-03-24T21:33:57.560Z,14.20
2023-03-24T21:36:25.896Z,14.25
2023-03-24T21:38:52.643Z,14.21
2023-03-24T21:41:20.849Z,14.30
2023-03-24T21:43:47.627Z,14.07
2023-03-24T21:46:14.349Z,14.26
2023-03-24T21:48:41.132Z,14.34
2023-03-24T21:51:07.857Z,14.28
2023-03-24T21:53:34.579Z,14.26
2023-03-24T21:56:01.313Z,14.43
2023-03-24T21:58:27.965Z,14.46
2023-03-24T22:00:55.003Z,14.25
2023-03-24T22:03:21.859Z,14.20
2023-03-24T22:05:48.898Z,14.35
2023-03-24T22:08:15.784Z,14.16
2023-03-24T22:10:42.419Z,14.23
2023-03-24T22:13:09.579Z,14.24
2023-03-24T22:15:36.840Z,14.18
2023-03-24T22:18:03.781Z,13.92
2023-03-24T22:20:30.517Z,14.20
2023-03-24T22:22:57.353Z,14.32
2023-03-24T22:25:24.715Z,14.34
2023-03-24T22:27:52.613Z,14.53
2023-03-24T22:30:20.024Z,14.31
2023-03-24T22:32:46.720Z,14.55
2023-03-24T22:35:13.465Z,14.22
2023-03-24T22:37:40.343Z,14.12
2023-03-24T22:40:07.860Z,14.01
2023-03-24T22:42:34.598Z,14.39
2023-03-24T22:45:01.242Z,14.35
2023-03-24T22:47:27.927Z,14.30
2023-03-24T22:49:54.667Z,14.19
2023-03-24T22:52:21.309Z,14.06
2023-03-24T22:54:47.919Z,14.00
2023-03-24T22:57:14.630Z,14.11
2023-03-24T22:59:41.344Z,14.13
2023-03-24T23:02:10.313Z,14.24
2023-03-24T23:04:37.568Z,14.32
2023-03-24T23:07:04.229Z,14.15
2023-03-24T23:09:30.951Z,14.51
2023-03-24T23:11:57.603Z,14.24
2023-03-24T23:14:24.239Z,14.13
2023-03-24T23:16:50.929Z,14.18
2023-03-24T23:19:17.582Z,14.10
2023-03-24T23:21:44.220Z,14.11
2023-03-24T23:24:11.032Z,14.32
2023-03-24T23:26:37.663Z,14.25
2023-03-24T23:29:04.308Z,14.21
2023-03-24T23:31:31.102Z,14.19
2023-03-24T23:33:58.165Z,14.17
2023-03-24T23:36:25.210Z,13.95
2023-03-24T23:38:52.294Z,13.86
2023-03-24T23:41:19.982Z,13.99
2023-03-24T23:43:51.172Z,14.06
2023-03-24T23:46:18.734Z,14.13
2023-03-24T23:48:46.162Z,14.18
2023-03-24T23:51:13.326Z,14.15
2023-03-24T23:53:39.956Z,14.12
2023-03-24T23:56:08.590Z,14.09
2023-03-24T23:58:38.412Z,14.03
